Time;durP1;ratioP1;P1;durP2;ratioP2;P2;SDS_P1;SDS_P2;PMS_P1;PMS_P2;Temp;Humidity;BMP_temperature;BMP_pressure;BME280_temperature;BME280_humidity;BME280_pressure;Samples;Min_cycle;Max_cycle;Signal;HPM_P1;HPM_P2
2022/06/27 00:00:21;;;;;;;3.57;3.00;;;18.10;99.90;;;;;;6243421;23;20026;-85
2022/06/27 00:02:47;;;;;;;5.55;3.78;;;18.10;99.90;;;;;;6245569;23;20055;-85
2022/06/27 00:05:12;;;;;;;5.28;4.25;;;18.10;99.90;;;;;;6243977;23;20024;-85
2022/06/27 00:07:39;;;;;;;5.40;3.47;;;18.10;99.90;;;;;;6218018;23;20313;-85
2022/06/27 00:10:07;;;;;;;4.63;3.67;;;18.10;99.90;;;;;;6217917;23;20016;-84
2022/06/27 00:12:32;;;;;;;5.65;3.42;;;18.00;99.90;;;;;;6192076;23;20600;-85
2022/06/27 00:14:59;;;;;;;3.50;3.05;;;18.00;99.90;;;;;;6244805;23;20016;-84
2022/06/27 00:17:27;;;;;;;4.53;3.28;;;18.00;99.90;;;;;;6217134;23;20074;-85
2022/06/27 00:19:53;;;;;;;4.90;4.47;;;18.00;99.90;;;;;;6244754;23;20016;-85
2022/06/27 00:22:19;;;;;;;4.07;3.13;;;18.00;99.90;;;;;;6216988;23;20456;-85
2022/06/27 00:24:45;;;;;;;4.28;3.25;;;18.00;99.90;;;;;;6216426;23;20087;-85
2022/06/27 00:27:11;;;;;;;6.05;3.65;;;18.00;99.90;;;;;;6216969;23;20019;-85
2022/06/27 00:29:37;;;;;;;4.53;3.75;;;18.00;99.90;;;;;;6167495;23;20640;-85
2022/06/27 00:32:03;;;;;;;4.80;3.42;;;18.00;99.90;;;;;;6217339;23;20040;-85
2022/06/27 00:34:29;;;;;;;6.18;4.22;;;18.00;99.90;;;;;;6216832;23;20318;-85
2022/06/27 00:36:54;;;;;;;4.50;3.93;;;18.00;99.90;;;;;;6217445;23;20070;-85
2022/06/27 00:39:21;;;;;;;7.43;3.75;;;18.00;99.90;;;;;;6243851;23;20251;-85
2022/06/27 00:41:46;;;;;;;5.03;3.95;;;17.90;99.90;;;;;;6217488;23;20467;-85
2022/06/27 00:44:29;;;;;;;4.63;4.18;;;17.90;99.90;;;;;;6192071;23;20020;-85
2022/06/27 00:46:55;;;;;;;5.45;4.28;;;17.90;99.90;;;;;;6167535;23;20014;-84
2022/06/27 00:49:20;;;;;;;5.32;4.20;;;17.90;99.90;;;;;;6243882;23;20016;-84
2022/06/27 00:51:46;;;;;;;5.23;3.83;;;17.90;99.90;;;;;;6192262;23;20078;-85
2022/06/27 00:54:12;;;;;;;6.10;4.40;;;17.90;99.90;;;;;;6216428;23;20023;-84
2022/06/27 00:56:39;;;;;;;4.55;4.10;;;17.90;99.90;;;;;;6243508;23;20059;-85
2022/06/27 00:59:04;;;;;;;4.57;4.18;;;17.90;99.90;;;;;;6244015;23;20027;-84
2022/06/27 01:01:31;;;;;;;5.73;3.97;;;17.80;99.90;;;;;;6216946;23;20024;-85
2022/06/27 01:04:00;;;;;;;5.35;3.97;;;17.80;99.90;;;;;;6215901;23;20020;-85
2022/06/27 01:06:27;;;;;;;5.45;3.88;;;17.90;99.90;;;;;;6216957;23;20028;-85
2022/06/27 01:08:53;;;;;;;5.90;4.20;;;17.80;99.90;;;;;;6217048;23;20055;-85
2022/06/27 01:11:20;;;;;;;6.00;3.88;;;17.80;99.90;;;;;;6217118;23;20024;-85
2022/06/27 01:13:46;;;;;;;7.03;4.63;;;17.80;99.90;;;;;;6216818;23;20020;-85
2022/06/27 01:16:12;;;;;;;5.78;5.03;;;17.80;99.90;;;;;;6243622;23;20016;-85
2022/06/27 01:18:38;;;;;;;;;;;17.80;99.90;;;;;;6192221;23;20348;-85
2022/06/27 01:21:15;;;;;;;6.13;4.15;;;17.70;99.90;;;;;;6217202;23;19915;-85
2022/06/27 01:23:40;;;;;;;4.18;3.65;;;17.70;99.90;;;;;;6243314;23;20027;-85
2022/06/27 01:26:06;;;;;;;7.35;4.57;;;17.70;99.90;;;;;;6243936;23;20082;-85
2022/06/27 01:28:32;;;;;;;7.03;5.05;;;17.70;99.90;;;;;;6216653;23;20099;-85
2022/06/27 01:30:57;;;;;;;5.30;4.38;;;17.70;99.90;;;;;;6191830;23;20016;-84
2022/06/27 01:33:23;;;;;;;5.32;4.32;;;17.70;99.90;;;;;;6216227;23;20375;-85
2022/06/27 01:36:41;;;;;;;5.78;4.47;;;17.70;99.90;;;;;;6216950;23;20024;-85
2022/06/27 01:38:35;;;;;;;5.88;4.22;;;17.70;99.90;;;;;;6216276;23;20020;-85
2022/06/27 01:41:00;;;;;;;6.13;5.00;;;17.70;99.90;;;;;;6243989;23;20016;-85
2022/06/27 01:43:26;;;;;;;6.67;5.07;;;17.70;99.90;;;;;;6216099;23;20727;-85
2022/06/27 01:45:52;;;;;;;5.22;4.63;;;17.80;99.90;;;;;;6243672;23;20523;-85
2022/06/27 01:48:17;;;;;;;6.10;4.23;;;17.70;99.90;;;;;;6243725;23;20022;-85
2022/06/27 01:50:48;;;;;;;5.10;4.60;;;17.70;99.90;;;;;;6191622;23;20070;-85
2022/06/27 01:53:14;;;;;;;5.45;4.40;;;17.70;99.90;;;;;;6243242;23;20073;-85
2022/06/27 01:55:40;;;;;;;7.28;4.85;;;17.60;99.90;;;;;;6216613;23;20103;-85
2022/06/27 01:58:06;;;;;;;5.55;4.63;;;17.60;99.90;;;;;;6216861;23;20079;-85
2022/06/27 02:00:31;;;;;;;5.57;4.40;;;17.60;99.90;;;;;;6216441;23;20019;-85
2022/06/27 02:02:57;;;;;;;5.80;4.30;;;17.60;99.90;;;;;;6243506;23;20039;-85
2022/06/27 02:05:23;;;;;;;7.75;5.32;;;17.50;99.90;;;;;;6219697;23;20285;-85
2022/06/27 02:07:50;;;;;;;5.47;4.15;;;17.50;99.90;;;;;;6218830;23;20272;-85
2022/06/27 02:10:16;;;;;;;6.93;4.78;;;17.50;99.90;;;;;;6219198;23;20095;-85
2022/06/27 02:12:42;;;;;;;6.10;4.37;;;17.50;99.90;;;;;;6244998;23;20074;-85
2022/06/27 02:15:09;;;;;;;6.63;4.35;;;17.50;99.90;;;;;;6218102;23;20312;-85
2022/06/27 02:17:35;;;;;;;6.50;4.80;;;17.50;99.90;;;;;;6245124;23;20012;-85
2022/06/27 02:20:01;;;;;;;5.38;4.50;;;17.60;99.90;;;;;;6246016;23;20016;-85
2022/06/27 02:22:29;;;;;;;8.43;5.28;;;17.50;99.90;;;;;;6245655;23;20034;-85
2022/06/27 02:24:54;;;;;;;6.35;5.75;;;17.40;99.90;;;;;;6192601;23;20055;-85
2022/06/27 02:27:21;;;;;;;10.90;6.17;;;17.40;99.90;;;;;;6193784;23;20024;-85
2022/06/27 02:29:47;;;;;;;5.03;4.53;;;17.50;99.90;;;;;;6218156;23;20247;-85
2022/06/27 02:32:13;;;;;;;6.47;5.13;;;17.40;99.90;;;;;;6192899;23;20449;-85
2022/06/27 02:34:39;;;;;;;10.20;5.25;;;17.50;99.90;;;;;;6244240;23;20053;-86
2022/06/27 02:37:06;;;;;;;10.20;5.20;;;17.40;99.90;;;;;;6245690;23;20016;-85
2022/06/27 02:39:35;;;;;;;9.18;6.30;;;17.40;99.90;;;;;;6193498;23;20340;-85
2022/06/27 02:42:04;;;;;;;7.18;5.20;;;17.40;99.90;;;;;;6245832;23;20016;-85
2022/06/27 02:44:31;;;;;;;6.18;4.85;;;17.40;99.90;;;;;;6218022;23;20090;-85
2022/06/27 02:46:57;;;;;;;6.72;5.03;;;17.40;99.90;;;;;;6193148;23;20445;-85
2022/06/27 02:49:23;;;;;;;6.70;5.80;;;17.40;99.90;;;;;;6245703;23;20023;-85
2022/06/27 02:52:13;;;;;;;8.98;5.43;;;17.40;99.90;;;;;;6193318;23;20441;-84
2022/06/27 02:54:49;;;;;;;10.02;5.72;;;17.30;99.90;;;;;;6217411;23;20433;-85
2022/06/27 02:57:28;;;;;;;9.50;5.10;;;17.30;99.90;;;;;;6193772;23;20455;-86
2022/06/27 02:59:57;;;;;;;7.65;4.75;;;17.20;99.90;;;;;;6218151;23;20020;-86
2022/06/27 03:02:25;;;;;;;8.13;6.03;;;17.20;99.90;;;;;;6193441;23;20043;-86
2022/06/27 03:04:52;;;;;;;9.27;6.28;;;17.20;99.90;;;;;;6216878;23;20012;-86
2022/06/27 03:07:18;;;;;;;9.05;6.10;;;17.20;99.90;;;;;;6193179;23;20091;-85
2022/06/27 03:09:43;;;;;;;8.00;5.87;;;17.20;99.90;;;;;;6193023;23;20451;-86
2022/06/27 03:12:09;;;;;;;9.03;6.57;;;17.10;99.90;;;;;;6218607;23;20856;-86
2022/06/27 03:14:35;;;;;;;6.43;5.47;;;17.10;99.90;;;;;;6192759;23;20048;-86
2022/06/27 03:17:00;;;;;;;8.25;6.75;;;17.20;99.90;;;;;;6216540;23;20016;-85
2022/06/27 03:19:26;;;;;;;11.32;6.18;;;17.20;99.90;;;;;;6193630;23;20337;-85
2022/06/27 03:21:52;;;;;;;8.70;5.88;;;17.10;99.90;;;;;;6168147;23;20019;-86
2022/06/27 03:24:18;;;;;;;7.20;5.80;;;17.10;99.90;;;;;;6168276;23;20078;-87
2022/06/27 03:26:43;;;;;;;7.13;6.40;;;17.10;99.90;;;;;;6217507;23;20243;-86
2022/06/27 03:29:09;;;;;;;8.43;5.50;;;17.00;99.90;;;;;;6218123;23;20318;-86
2022/06/27 03:31:35;;;;;;;7.88;6.22;;;17.00;99.90;;;;;;6192614;23;20282;-85
2022/06/27 03:34:00;;;;;;;6.53;5.77;;;17.00;99.90;;;;;;6192191;23;20020;-86
2022/06/27 03:36:26;;;;;;;8.87;6.13;;;17.10;99.90;;;;;;6193201;23;20093;-85
2022/06/27 03:38:52;;;;;;;7.75;5.97;;;17.00;99.90;;;;;;6217803;23;20247;-85
2022/06/27 03:41:18;;;;;;;8.07;5.70;;;17.00;99.90;;;;;;6218169;23;20091;-86
2022/06/27 03:43:43;;;;;;;7.20;6.05;;;17.00;99.90;;;;;;6217222;23;20012;-86
2022/06/27 03:46:09;;;;;;;6.65;5.90;;;17.00;99.90;;;;;;6218020;23;20012;-86
2022/06/27 03:51:19;;;;;;;9.65;5.63;;;17.00;99.90;;;;;;6217465;23;20059;-87
2022/06/27 03:53:45;;;;;;;8.05;5.28;;;17.00;99.90;;;;;;6167046;23;20020;-87
2022/06/27 03:56:11;;;;;;;7.13;5.50;;;17.00;99.90;;;;;;6168239;23;20099;-86
2022/06/27 03:58:36;;;;;;;7.75;5.22;;;17.00;99.90;;;;;;6193067;23;20545;-86
2022/06/27 04:01:03;;;;;;;6.83;5.23;;;17.00;99.90;;;;;;6167474;23;20048;-86
2022/06/27 04:03:30;;;;;;;7.63;6.13;;;17.00;99.90;;;;;;6218313;23;20038;-86
2022/06/27 04:05:56;;;;;;;6.97;4.43;;;17.00;99.90;;;;;;6192264;23;20020;-86
2022/06/27 04:08:21;;;;;;;4.68;4.22;;;17.00;99.90;;;;;;6143735;23;20020;-87
2022/06/27 04:10:47;;;;;;;5.93;4.57;;;17.00;99.90;;;;;;6192624;23;20096;-88
2022/06/27 04:13:13;;;;;;;7.20;5.07;;;17.00;99.90;;;;;;6192806;23;20052;-87
2022/06/27 04:15:39;;;;;;;8.17;4.77;;;17.00;99.90;;;;;;6218153;23;20012;-87
2022/06/27 04:18:05;;;;;;;;;;;17.00;99.90;;;;;;6217846;23;20020;-87
2022/06/27 04:20:30;;;;;;;4.68;3.53;;;17.00;99.90;;;;;;6243014;23;19963;-87
2022/06/27 04:22:56;;;;;;;6.18;4.35;;;17.00;99.90;;;;;;6216914;23;20012;-87
2022/06/27 04:25:22;;;;;;;6.33;3.50;;;17.00;99.90;;;;;;6217790;23;20016;-87
2022/06/27 04:27:48;;;;;;;7.45;4.25;;;16.90;99.90;;;;;;6192341;23;20066;-88
2022/06/27 04:30:16;;;;;;;4.00;2.92;;;16.90;99.90;;;;;;6217082;23;20012;-87
2022/06/27 04:32:44;;;;;;;4.28;3.58;;;16.90;99.90;;;;;;6191951;23;20024;-87
2022/06/27 04:35:10;;;;;;;4.00;3.42;;;16.80;99.90;;;;;;6217005;23;20020;-87
2022/06/27 04:37:40;;;;;;;5.00;3.38;;;16.80;99.90;;;;;;6192734;23;20016;-87
2022/06/27 04:40:10;;;;;;;4.07;3.00;;;16.70;99.90;;;;;;6169134;23;20016;-87
2022/06/27 04:42:36;;;;;;;3.25;2.30;;;16.70;99.90;;;;;;6167807;23;20024;-87
2022/06/27 04:45:03;;;;;;;2.97;2.60;;;16.70;99.90;;;;;;6217239;23;20027;-87
2022/06/27 04:47:29;;;;;;;3.10;2.38;;;16.60;99.90;;;;;;6217239;23;20504;-87
2022/06/27 04:49:55;;;;;;;2.70;2.10;;;16.60;99.90;;;;;;6216992;23;20055;-86
2022/06/27 04:52:21;;;;;;;2.97;2.03;;;16.60;99.90;;;;;;6217143;23;20055;-87
2022/06/27 04:54:47;;;;;;;2.90;1.47;;;16.60;99.90;;;;;;6192696;23;20341;-87
2022/06/27 04:57:13;;;;;;;2.33;1.80;;;16.60;99.90;;;;;;6216878;23;20313;-86
2022/06/27 04:59:39;;;;;;;1.50;1.25;;;16.50;99.90;;;;;;6168030;23;20258;-87
2022/06/27 05:02:05;;;;;;;1.10;1.10;;;16.50;99.90;;;;;;6189879;23;20020;-86
2022/06/27 05:04:30;;;;;;;2.25;1.63;;;16.40;99.90;;;;;;6217641;23;20318;-87
2022/06/27 05:06:56;;;;;;;2.03;1.87;;;16.40;99.90;;;;;;6191252;23;20023;-86
2022/06/27 05:09:22;;;;;;;1.85;1.58;;;16.40;99.90;;;;;;6167641;23;20259;-86
2022/06/27 05:11:50;;;;;;;1.45;1.35;;;16.40;99.90;;;;;;6216011;23;20441;-86
2022/06/27 05:14:16;;;;;;;1.52;1.25;;;16.40;99.90;;;;;;6216606;23;20024;-88
2022/06/27 05:16:42;;;;;;;1.33;1.23;;;16.40;99.90;;;;;;6217003;23;20016;-87
2022/06/27 05:19:09;;;;;;;2.57;2.03;;;16.40;99.90;;;;;;6217029;23;20016;-86
2022/06/27 05:21:36;;;;;;;1.65;1.10;;;16.40;99.90;;;;;;6192332;23;20445;-86
2022/06/27 05:24:02;;;;;;;3.08;1.50;;;16.40;99.90;;;;;;6216957;23;20078;-87
2022/06/27 05:26:28;;;;;;;2.47;1.75;;;16.40;99.90;;;;;;6192426;23;20440;-86
2022/06/27 05:28:55;;;;;;;3.60;1.77;;;16.40;99.90;;;;;;6216392;23;20057;-87
2022/06/27 05:31:21;;;;;;;;;;;16.40;99.90;;;;;;6192935;23;20085;-86
2022/06/27 05:33:47;;;;;;;1.63;1.48;;;16.40;99.90;;;;;;6191821;23;20332;-86
2022/06/27 05:36:12;;;;;;;2.03;1.55;;;16.40;99.90;;;;;;6216575;23;20056;-86
2022/06/27 05:38:39;;;;;;;2.10;1.63;;;16.40;99.90;;;;;;6191614;23;20055;-86
2022/06/27 05:41:06;;;;;;;1.58;1.42;;;16.40;99.90;;;;;;6191360;23;20070;-87
2022/06/27 05:43:31;;;;;;;;;;;16.40;99.90;;;;;;6217044;23;20441;-86
2022/06/27 05:45:58;;;;;;;1.27;1.15;;;16.40;99.90;;;;;;6191868;23;19930;-88
2022/06/27 05:48:25;;;;;;;1.77;1.48;;;16.50;99.90;;;;;;6191579;23;20087;-87
2022/06/27 05:50:50;;;;;;;1.85;1.70;;;16.60;99.90;;;;;;6217289;23;20016;-87
2022/06/27 05:53:16;;;;;;;1.70;1.42;;;16.50;99.90;;;;;;6215849;23;20472;-86
2022/06/27 05:55:45;;;;;;;3.63;1.38;;;16.60;99.90;;;;;;6191687;23;20031;-86
2022/06/27 05:58:13;;;;;;;2.38;1.35;;;16.60;99.90;;;;;;6215727;23;20023;-86
2022/06/27 06:00:39;;;;;;;1.48;1.38;;;16.70;99.90;;;;;;6167497;23;20012;-87
2022/06/27 06:03:04;;;;;;;2.60;1.38;;;16.70;99.90;;;;;;6215919;23;20055;-87
2022/06/27 06:05:31;;;;;;;2.20;1.63;;;16.60;99.90;;;;;;6217250;23;20030;-87
2022/06/27 06:08:02;;;;;;;1.60;1.50;;;16.70;99.90;;;;;;6217003;23;20271;-87
2022/06/27 06:10:28;;;;;;;2.13;1.52;;;16.70;99.90;;;;;;6216638;23;20020;-87
2022/06/27 06:12:54;;;;;;;;;;;16.70;99.90;;;;;;6193999;23;20357;-87
2022/06/27 06:15:20;;;;;;;3.30;1.98;;;16.70;99.90;;;;;;6191637;23;19919;-92
2022/06/27 06:17:46;;;;;;;2.47;1.40;;;16.70;99.90;;;;;;6167496;23;20019;-92
2022/06/27 06:20:12;;;;;;;2.38;1.52;;;16.70;99.90;;;;;;6215998;23;20101;-92
2022/06/27 06:22:44;;;;;;;1.40;1.30;;;16.80;99.90;;;;;;6167671;23;20020;-93
2022/06/27 06:25:10;;;;;;;1.92;1.83;;;16.30;99.90;;;;;;6192348;23;20024;-94
2022/06/27 06:27:40;;;;;;;2.50;2.03;;;16.80;99.90;;;;;;6217693;23;20016;-94
2022/06/27 06:30:07;;;;;;;1.88;1.55;;;16.80;99.90;;;;;;6216684;23;20035;-93
2022/06/27 06:32:34;;;;;;;;;;;16.80;99.90;;;;;;6186967;23;20028;-92
2022/06/27 06:35:00;;;;;;;1.67;1.58;;;16.80;99.90;;;;;;6212950;23;19923;-91
2022/06/27 06:37:38;;;;;;;1.55;1.25;;;16.80;99.90;;;;;;6187545;23;20384;-93
2022/06/27 06:40:05;;;;;;;1.80;1.70;;;16.80;99.90;;;;;;6213054;23;20020;-93
2022/06/27 06:42:30;;;;;;;2.13;1.92;;;16.50;99.90;;;;;;6187546;23;20391;-88
2022/06/27 06:44:57;;;;;;;4.35;2.05;;;16.90;99.90;;;;;;6186765;23;20030;-89
2022/06/27 06:47:26;;;;;;;2.85;2.05;;;16.90;99.90;;;;;;6211356;23;20017;-89
2022/06/27 06:49:51;;;;;;;2.53;2.00;;;16.90;99.90;;;;;;6162089;23;20056;-89
2022/06/27 06:52:18;;;;;;;3.58;1.90;;;16.90;99.90;;;;;;6188218;23;20024;-89
2022/06/27 06:54:45;;;;;;;1.52;1.42;;;17.00;99.90;;;;;;6188573;23;20102;-91
2022/06/27 06:57:11;;;;;;;2.28;1.85;;;17.00;99.90;;;;;;6188290;23;20021;-88
2022/06/27 06:59:37;;;;;;;2.53;1.60;;;16.90;99.90;;;;;;6163697;23;20259;-87
2022/06/27 07:02:04;;;;;;;3.03;1.85;;;17.00;99.90;;;;;;6163913;23;20047;-89
2022/06/27 07:04:30;;;;;;;3.65;1.67;;;17.00;99.90;;;;;;6186812;23;20033;-87
2022/06/27 07:06:56;;;;;;;2.60;1.50;;;17.00;99.90;;;;;;6188891;23;20099;-87
2022/06/27 07:09:22;;;;;;;2.63;2.00;;;17.00;99.90;;;;;;6188459;23;20280;-88
2022/06/27 07:11:47;;;;;;;1.95;1.55;;;17.00;99.90;;;;;;6162937;23;20346;-87
2022/06/27 07:14:15;;;;;;;3.08;2.35;;;17.00;99.90;;;;;;6163001;23;20459;-88
2022/06/27 07:16:42;;;;;;;2.00;1.65;;;17.00;99.90;;;;;;6165074;23;20051;-87
2022/06/27 07:19:08;;;;;;;2.15;1.95;;;16.90;99.90;;;;;;6188781;23;20099;-88
2022/06/27 07:21:34;;;;;;;1.67;1.50;;;17.60;99.90;;;;;;6212595;23;20856;-86
2022/06/27 07:24:01;;;;;;;2.15;1.42;;;16.90;99.90;;;;;;6188422;23;20021;-87
2022/06/27 07:26:29;;;;;;;2.15;1.95;;;16.90;99.90;;;;;;6187863;23;20016;-86
2022/06/27 07:28:56;;;;;;;1.88;1.60;;;16.90;99.90;;;;;;6213196;23;20429;-85
2022/06/27 07:31:21;;;;;;;;;;;16.90;99.90;;;;;;6187501;23;20086;-86
2022/06/27 07:33:51;;;;;;;2.28;2.08;;;16.80;99.90;;;;;;6217996;23;20329;-86
2022/06/27 07:36:19;;;;;;;2.05;1.63;;;16.80;99.90;;;;;;6218393;23;20023;-86
2022/06/27 07:38:49;;;;;;;2.53;2.30;;;16.80;99.90;;;;;;6193829;23;20031;-86
2022/06/27 07:41:19;;;;;;;2.40;2.10;;;16.80;99.90;;;;;;6217436;23;20016;-86
2022/06/27 07:43:46;;;;;;;3.20;2.28;;;16.80;99.90;;;;;;6217967;23;20012;-85
2022/06/27 07:46:13;;;;;;;1.88;1.60;;;16.80;99.90;;;;;;6192729;23;20027;-90
2022/06/27 07:48:39;;;;;;;3.83;1.63;;;16.80;99.90;;;;;;6218259;23;20016;-85
2022/06/27 07:51:47;;;;;;;;;;;;;;;;;;;;;
2022/06/27 07:54:19;;;;;;;2.15;1.80;;;17.10;99.90;;;;;;6211180;23;20382;-86
2022/06/27 07:56:46;;;;;;;1.92;1.80;;;16.80;99.90;;;;;;6192987;23;20058;-86
2022/06/27 07:59:13;;;;;;;2.55;2.25;;;16.80;99.90;;;;;;6218060;23;20016;-85
2022/06/27 08:01:40;;;;;;;2.50;1.73;;;16.80;99.90;;;;;;6192078;23;20468;-87
2022/06/27 08:04:08;;;;;;;2.63;2.10;;;16.80;99.90;;;;;;6167139;23;20344;-86
2022/06/27 08:06:34;;;;;;;3.17;1.65;;;16.80;99.90;;;;;;6193108;23;20031;-86
2022/06/27 08:09:08;;;;;;;1.90;1.73;;;16.80;99.90;;;;;;6193078;23;20013;-86
2022/06/27 08:11:41;;;;;;;3.33;2.22;;;16.90;99.90;;;;;;6192794;23;20464;-85
2022/06/27 08:14:12;;;;;;;2.33;2.05;;;16.90;99.90;;;;;;6192205;23;20043;-88
2022/06/27 08:16:39;;;;;;;2.53;1.98;;;16.90;99.90;;;;;;6192445;23;20025;-85
2022/06/27 08:19:09;;;;;;;3.22;2.00;;;17.00;99.90;;;;;;6193227;23;20437;-84
2022/06/27 08:21:37;;;;;;;2.47;2.20;;;17.00;99.90;;;;;;6217845;23;20318;-86
2022/06/27 08:24:07;;;;;;;2.95;2.05;;;17.00;99.90;;;;;;6217480;23;20098;-85
2022/06/27 08:26:34;;;;;;;3.13;2.22;;;17.00;99.90;;;;;;6217404;23;20020;-85
2022/06/27 08:28:59;;;;;;;;;;;17.00;99.90;;;;;;6193524;23;20067;-85
2022/06/27 08:31:26;;;;;;;2.97;1.90;;;17.10;99.90;;;;;;6216414;23;19916;-86
2022/06/27 08:33:58;;;;;;;;;;;17.10;99.90;;;;;;6193575;23;20052;-85
2022/06/27 08:36:27;;;;;;;2.42;1.88;;;17.20;99.90;;;;;;6192336;23;19915;-86
2022/06/27 08:38:53;;;;;;;3.20;2.08;;;17.20;99.90;;;;;;6217773;23;20027;-85
2022/06/27 08:41:21;;;;;;;2.05;1.85;;;17.20;99.90;;;;;;6245684;23;20433;-88
2022/06/27 08:43:58;;;;;;;2.17;1.63;;;17.30;99.90;;;;;;6193119;23;20402;-83
2022/06/27 08:46:24;;;;;;;2.50;1.80;;;17.30;99.90;;;;;;6216702;23;20012;-85
2022/06/27 08:48:51;;;;;;;7.53;2.47;;;17.40;99.90;;;;;;6167362;23;20391;-83
2022/06/27 08:51:18;;;;;;;1.63;1.52;;;17.40;99.90;;;;;;6217390;23;20510;-83
2022/06/27 08:53:44;;;;;;;2.22;1.90;;;17.40;99.90;;;;;;6191221;23;20059;-84
2022/06/27 08:56:13;;;;;;;4.65;2.20;;;17.40;99.90;;;;;;6217773;23;20023;-84
2022/06/27 08:58:43;;;;;;;2.10;1.73;;;17.40;99.90;;;;;;6192111;23;20025;-83
2022/06/27 09:01:09;;;;;;;2.95;1.90;;;17.40;99.90;;;;;;6193683;23;20396;-83
2022/06/27 09:03:36;;;;;;;2.35;1.80;;;17.30;99.90;;;;;;6166744;23;20020;-84
2022/06/27 09:06:04;;;;;;;2.20;1.55;;;17.40;99.90;;;;;;6193327;23;20016;-84
2022/06/27 09:08:33;;;;;;;1.85;1.67;;;17.40;99.90;;;;;;6217863;23;20027;-84
2022/06/27 09:11:00;;;;;;;2.45;2.00;;;17.40;99.90;;;;;;6217854;23;20046;-89
2022/06/27 09:13:27;;;;;;;2.85;1.83;;;17.40;99.90;;;;;;6214914;23;20020;-90
2022/06/27 09:15:58;;;;;;;2.67;1.80;;;17.50;99.90;;;;;;6192639;23;20016;-87
2022/06/27 09:18:36;;;;;;;1.92;1.73;;;17.50;99.90;;;;;;6168889;23;20012;-86
2022/06/27 09:21:11;;;;;;;2.45;2.17;;;17.50;99.90;;;;;;6217611;23;20012;-86
2022/06/27 09:24:01;;;;;;;2.30;1.67;;;17.50;99.90;;;;;;6191593;23;20016;-87
2022/06/27 09:26:32;;;;;;;2.80;1.52;;;17.50;99.90;;;;;;6216872;23;20016;-89
2022/06/27 09:29:08;;;;;;;2.03;1.90;;;17.50;99.90;;;;;;6192491;23;20018;-86
2022/06/27 09:31:42;;;;;;;2.20;1.90;;;17.50;99.90;;;;;;6216349;23;20073;-87
2022/06/27 09:34:25;;;;;;;2.30;1.90;;;17.50;99.90;;;;;;6216777;23;20024;-87
2022/06/27 09:36:51;;;;;;;2.28;1.90;;;17.50;99.90;;;;;;6217174;23;20016;-86
2022/06/27 09:39:30;;;;;;;3.30;2.03;;;17.50;99.90;;;;;;6192776;23;20051;-90
2022/06/27 09:42:05;;;;;;;3.28;2.85;;;17.50;99.90;;;;;;6199750;23;20073;-88
2022/06/27 09:44:39;;;;;;;2.15;1.67;;;16.90;99.90;;;;;;6195071;23;20023;-86
2022/06/27 09:47:20;;;;;;;2.72;2.50;;;17.50;99.90;;;;;;6191398;23;20064;-85
2022/06/27 09:49:52;;;;;;;2.40;1.80;;;17.50;99.90;;;;;;6216746;23;20102;-86
2022/06/27 09:52:25;;;;;;;2.65;2.38;;;17.50;99.90;;;;;;6217691;23;20016;-85
2022/06/27 09:54:55;;;;;;;2.78;1.83;;;17.50;99.90;;;;;;6168395;23;20027;-85
2022/06/27 09:57:21;;;;;;;2.10;1.90;;;17.50;99.90;;;;;;6216750;23;20399;-85
2022/06/27 09:59:50;;;;;;;2.33;1.98;;;17.50;99.90;;;;;;6191770;23;20017;-85
2022/06/27 10:02:19;;;;;;;4.35;1.92;;;17.50;99.90;;;;;;6191361;23;20517;-85
2022/06/27 10:04:51;;;;;;;2.22;2.03;;;17.50;99.90;;;;;;6216801;23;20314;-85
2022/06/27 10:07:18;;;;;;;2.55;2.35;;;17.60;99.90;;;;;;6216932;23;20016;-85
2022/06/27 10:09:48;;;;;;;2.40;2.20;;;17.60;99.90;;;;;;6217131;23;20094;-85
2022/06/27 10:12:28;;;;;;;3.92;2.03;;;17.60;99.90;;;;;;6217380;23;20017;-87
2022/06/27 10:15:14;;;;;;;3.95;2.22;;;17.70;99.90;;;;;;6251563;23;20176;-85
2022/06/27 10:17:46;;;;;;;4.13;2.60;;;17.70;99.90;;;;;;6191049;23;20449;-83
2022/06/27 10:20:28;;;;;;;3.35;2.30;;;17.80;99.90;;;;;;6216563;23;20038;-84
2022/06/27 10:23:08;;;;;;;3.60;1.83;;;17.80;99.90;;;;;;6190594;23;20028;-83
2022/06/27 10:25:38;;;;;;;2.55;2.20;;;17.80;99.90;;;;;;6193443;23;20020;-86
2022/06/27 10:28:10;;;;;;;2.70;2.35;;;17.90;99.90;;;;;;6193818;23;20047;-85
2022/06/27 10:30:51;;;;;;;2.10;1.60;;;17.90;99.90;;;;;;6192678;23;20024;-87
2022/06/27 10:33:26;;;;;;;2.30;1.73;;;17.90;99.90;;;;;;6194090;23;20016;-84
2022/06/27 10:35:57;;;;;;;2.45;2.22;;;17.90;99.90;;;;;;6218309;23;20104;-83
2022/06/27 10:38:48;;;;;;;2.13;1.75;;;17.90;99.90;;;;;;6194444;23;20016;-83
2022/06/27 10:41:21;;;;;;;2.67;1.67;;;17.90;99.90;;;;;;6194002;23;20019;-83
2022/06/27 10:43:50;;;;;;;1.73;1.45;;;17.90;99.90;;;;;;6218611;23;20012;-84
2022/06/27 10:46:15;;;;;;;1.08;1.02;;;17.90;99.90;;;;;;6194110;23;20444;-84
2022/06/27 10:48:52;;;;;;;2.60;1.77;;;18.00;99.90;;;;;;6194114;23;20012;-83
2022/06/27 10:51:22;;;;;;;1.65;1.55;;;18.00;99.90;;;;;;6218907;23;20012;-84
2022/06/27 10:54:09;;;;;;;1.60;1.48;;;18.00;99.90;;;;;;6191844;23;20020;-85
2022/06/27 10:56:41;;;;;;;2.10;1.65;;;18.10;99.90;;;;;;6193307;23;20457;-84
2022/06/27 10:59:16;;;;;;;3.42;2.00;;;18.10;99.90;;;;;;6193838;23;20437;-84
2022/06/27 11:01:51;;;;;;;1.88;1.77;;;18.10;99.90;;;;;;6218046;23;20115;-86
2022/06/27 11:04:47;;;;;;;1.80;1.60;;;18.20;99.90;;;;;;6218719;23;20042;-87
2022/06/27 11:07:14;;;;;;;1.88;1.23;;;18.20;99.90;;;;;;6139199;23;20027;-87
2022/06/27 11:09:45;;;;;;;1.60;1.50;;;18.20;99.90;;;;;;6169017;23;20020;-88
2022/06/27 11:12:14;;;;;;;1.50;1.40;;;18.20;99.90;;;;;;6218386;23;20098;-86
2022/06/27 11:14:54;;;;;;;1.45;1.35;;;18.20;99.90;;;;;;6191387;23;20023;-89
2022/06/27 11:17:44;;;;;;;2.85;1.42;;;18.20;99.90;;;;;;6192599;23;20095;-86
2022/06/27 11:20:26;;;;;;;1.38;1.25;;;18.30;99.90;;;;;;6219280;23;20345;-86
2022/06/27 11:22:58;;;;;;;2.05;1.52;;;17.20;99.90;;;;;;6193866;23;20444;-86
2022/06/27 11:25:27;;;;;;;1.88;1.33;;;18.30;99.90;;;;;;6194505;23;20127;-86
2022/06/27 11:33:36;;;;;;;1.55;1.42;;;18.30;99.90;;;;;;6219445;23;20027;-86
2022/06/27 11:36:03;;;;;;;1.45;1.27;;;18.30;99.90;;;;;;6218165;23;20016;-87
2022/06/27 11:38:45;;;;;;;1.27;1.15;;;18.20;99.90;;;;;;6193980;23;20016;-86
2022/06/27 11:41:14;;;;;;;1.63;1.42;;;18.20;99.90;;;;;;6193864;23;20042;-86
2022/06/27 11:43:56;;;;;;;3.42;1.58;;;18.20;99.90;;;;;;6246187;23;20031;-86
2022/06/27 11:46:35;;;;;;;2.13;1.40;;;18.20;99.90;;;;;;6219359;23;20016;-86
2022/06/27 11:49:07;;;;;;;1.70;1.45;;;18.20;99.90;;;;;;6218529;23;20023;-86
2022/06/27 11:51:36;;;;;;;1.48;1.17;;;18.20;99.90;;;;;;6219187;23;20017;-86
2022/06/27 11:54:11;;;;;;;1.90;1.48;;;18.20;99.90;;;;;;6218504;23;20016;-86
2022/06/27 11:56:46;;;;;;;3.40;1.90;;;18.20;99.90;;;;;;6218856;23;20012;-86
2022/06/27 11:59:14;;;;;;;2.08;1.70;;;18.20;99.90;;;;;;6218504;23;20020;-86
2022/06/27 12:02:09;;;;;;;1.70;1.27;;;18.20;99.90;;;;;;6194013;23;20341;-87
2022/06/27 12:04:35;;;;;;;1.63;1.20;;;18.20;99.90;;;;;;6162564;23;20038;-86
2022/06/27 12:07:03;;;;;;;2.10;1.50;;;18.20;99.90;;;;;;6144015;23;20099;-86
2022/06/27 12:09:29;;;;;;;2.30;1.30;;;18.20;99.90;;;;;;6219022;23;20027;-86
2022/06/27 12:11:57;;;;;;;1.80;1.65;;;18.20;99.90;;;;;;6218359;23;20086;-87
2022/06/27 12:14:24;;;;;;;2.15;1.73;;;18.20;99.90;;;;;;6193816;23;20043;-86
2022/06/27 12:16:52;;;;;;;1.50;1.30;;;18.20;99.90;;;;;;6193048;23;20020;-88
2022/06/27 12:19:18;;;;;;;3.03;1.63;;;18.20;99.90;;;;;;6193567;23;20016;-86
2022/06/27 12:21:45;;;;;;;1.50;1.40;;;18.20;99.90;;;;;;6193808;23;20016;-86
2022/06/27 12:24:11;;;;;;;4.97;1.85;;;18.20;99.90;;;;;;6192778;23;20027;-86
2022/06/27 12:26:37;;;;;;;3.30;2.10;;;18.20;99.90;;;;;;6169204;23;20020;-86
2022/06/27 12:29:05;;;;;;;3.42;2.20;;;18.30;99.90;;;;;;6217993;23;20099;-86
2022/06/27 12:31:33;;;;;;;3.22;2.03;;;18.30;99.90;;;;;;6193248;23;20020;-87
2022/06/27 12:33:58;;;;;;;1.65;1.50;;;18.30;99.90;;;;;;6218194;23;20092;-86
2022/06/27 12:36:25;;;;;;;3.78;2.10;;;18.30;99.90;;;;;;6218802;23;20012;-86
2022/06/27 12:38:50;;;;;;;3.83;2.00;;;18.30;99.90;;;;;;6193501;23;20093;-87
2022/06/27 12:41:17;;;;;;;2.75;2.03;;;18.30;99.90;;;;;;6218291;23;20492;-87
2022/06/27 12:43:44;;;;;;;1.92;1.70;;;18.30;99.90;;;;;;6193841;23;20016;-87
2022/06/27 12:46:11;;;;;;;2.08;1.77;;;18.40;99.90;;;;;;6217972;23;20016;-87
2022/06/27 12:48:37;;;;;;;;;;;18.30;99.90;;;;;;6193562;23;20095;-86
2022/06/27 12:51:04;;;;;;;2.28;1.35;;;18.30;99.90;;;;;;6217899;23;19915;-86
2022/06/27 12:53:30;;;;;;;2.00;1.80;;;18.30;99.90;;;;;;6193965;23;20016;-86
2022/06/27 12:55:57;;;;;;;1.75;1.48;;;18.30;99.90;;;;;;6193027;23;20027;-87
2022/06/27 12:58:25;;;;;;;1.48;1.27;;;18.30;99.90;;;;;;6169430;23;20027;-86
2022/06/27 13:00:51;;;;;;;2.50;2.30;;;18.30;99.90;;;;;;6218495;23;20013;-86
2022/06/27 13:03:17;;;;;;;2.65;1.98;;;18.20;99.90;;;;;;6167937;23;20452;-86
2022/06/27 13:05:42;;;;;;;2.30;2.03;;;18.20;99.90;;;;;;6218561;23;20024;-86